createdAt,value
2022-11-07T00:01:41.350Z,6.07
2022-11-07T00:04:08.695Z,6.10
2022-11-07T00:06:37.630Z,5.78
2022-11-07T00:09:05.674Z,6.10
2022-11-07T00:11:33.065Z,5.60
2022-11-07T00:14:00.328Z,6.00
2022-11-07T00:16:28.918Z,6.20
2022-11-07T00:18:56.695Z,5.95
2022-11-07T00:21:24.122Z,5.63
2022-11-07T00:23:51.429Z,5.55
2022-11-07T00:26:18.703Z,5.80
2022-11-07T00:28:46.390Z,5.60
2022-11-07T00:31:14.589Z,4.97
2022-11-07T00:33:42.474Z,5.40
2022-11-07T00:36:15.940Z,4.93
2022-11-07T00:38:43.191Z,5.25
2022-11-07T00:41:10.629Z,5.07
2022-11-07T00:43:37.970Z,5.20
2022-11-07T00:46:07.365Z,4.93
2022-11-07T00:48:35.316Z,4.88
2022-11-07T00:51:11.578Z,4.20
2022-11-07T00:53:39.330Z,4.18
2022-11-07T00:56:08.765Z,4.18
2022-11-07T00:58:36.554Z,4.50
2022-11-07T01:01:13.052Z,4.43
2022-11-07T01:04:00.093Z,3.92
2022-11-07T01:06:28.442Z,4.47
2022-11-07T01:08:56.570Z,4.65
2022-11-07T01:11:30.488Z,3.60
2022-11-07T01:14:00.215Z,3.92
2022-11-07T01:16:28.828Z,4.30
2022-11-07T01:18:56.133Z,4.20
2022-11-07T01:21:23.788Z,3.80
2022-11-07T01:27:02.708Z,4.38
2022-11-07T01:29:29.944Z,4.20
2022-11-07T01:32:00.159Z,3.85
2022-11-07T01:34:27.538Z,4.13
2022-11-07T01:36:54.877Z,4.10
2022-11-07T01:39:22.117Z,4.13
2022-11-07T01:41:49.468Z,4.22
2022-11-07T01:44:16.783Z,4.25
2022-11-07T01:46:45.575Z,4.15
2022-11-07T01:49:28.833Z,3.92
2022-11-07T01:52:07.147Z,4.28
2022-11-07T01:54:44.402Z,3.92
2022-11-07T01:57:17.572Z,4.13
2022-11-07T01:59:45.132Z,4.40
2022-11-07T02:02:12.758Z,4.20
2022-11-07T02:04:40.217Z,4.15
2022-11-07T02:07:16.673Z,3.85
2022-11-07T02:12:51.789Z,4.18
2022-11-07T02:15:19.275Z,4.20
2022-11-07T02:17:46.627Z,4.47
2022-11-07T02:20:14.171Z,4.43
2022-11-07T02:22:58.985Z,4.90
2022-11-07T02:25:26.475Z,4.35
2022-11-07T02:28:00.021Z,4.53
2022-11-07T02:30:34.610Z,4.22
2022-11-07T02:33:02.785Z,4.03
2022-11-07T02:35:42.358Z,4.22
2022-11-07T02:38:23.531Z,4.28
2022-11-07T02:40:58.451Z,4.30
2022-11-07T02:43:31.673Z,4.25
2022-11-07T02:46:02.207Z,4.65
2022-11-07T02:48:41.289Z,3.95
2022-11-07T02:51:08.611Z,4.40
2022-11-07T02:53:36.045Z,4.68
2022-11-07T02:56:03.529Z,4.95
2022-11-07T02:58:30.857Z,4.65
2022-11-07T03:01:03.005Z,4.70
2022-11-07T03:03:31.272Z,4.63
2022-11-07T03:05:58.664Z,4.40
2022-11-07T03:08:25.889Z,4.20
2022-11-07T03:10:53.134Z,4.40
2022-11-07T03:13:20.435Z,5.38
2022-11-07T03:15:47.661Z,6.40
2022-11-07T03:18:14.893Z,5.72
2022-11-07T03:20:42.142Z,6.28
2022-11-07T03:23:09.524Z,6.00
2022-11-07T03:25:36.839Z,6.30
2022-11-07T03:28:11.930Z,5.95
2022-11-07T03:30:42.328Z,6.53
2022-11-07T03:33:09.886Z,6.63
2022-11-07T03:35:37.612Z,6.25
2022-11-07T03:38:04.886Z,6.82
2022-11-07T03:40:32.137Z,6.65
2022-11-07T03:42:59.384Z,6.82
2022-11-07T03:45:26.686Z,6.93
2022-11-07T03:47:54.082Z,7.25
2022-11-07T03:50:22.484Z,6.93
2022-11-07T03:53:10.286Z,7.38
2022-11-07T03:55:37.546Z,7.10
2022-11-07T03:58:04.802Z,7.85
2022-11-07T04:00:32.097Z,7.72
2022-11-07T04:02:59.636Z,8.48
2022-11-07T04:05:27.069Z,8.48
2022-11-07T04:07:54.314Z,7.38
2022-11-07T04:10:21.598Z,7.95
2022-11-07T04:13:10.673Z,7.28
2022-11-07T04:15:57.982Z,7.15
2022-11-07T04:18:25.257Z,7.05
2022-11-07T04:20:52.616Z,7.30
2022-11-07T04:23:28.621Z,7.45
2022-11-07T04:26:14.616Z,6.85
2022-11-07T04:28:42.051Z,7.05
2022-11-07T04:31:14.773Z,6.85
2022-11-07T04:33:42.102Z,7.38
2022-11-07T04:36:09.485Z,6.47
2022-11-07T04:38:36.818Z,5.78
2022-11-07T04:41:04.775Z,5.20
2022-11-07T04:43:32.087Z,5.35
2022-11-07T04:45:59.434Z,4.95
2022-11-07T04:48:26.707Z,4.50
2022-11-07T04:50:54.142Z,3.78
2022-11-07T04:53:21.550Z,3.92
2022-11-07T04:55:48.915Z,4.35
2022-11-07T04:58:16.300Z,3.75
2022-11-07T05:00:43.598Z,3.55
2022-11-07T05:03:12.749Z,3.95
2022-11-07T05:05:40.271Z,3.78
2022-11-07T05:08:08.479Z,3.97
2022-11-07T05:10:35.716Z,4.00
2022-11-07T05:13:02.917Z,3.95
2022-11-07T05:15:30.132Z,3.92
2022-11-07T05:17:57.360Z,3.50
2022-11-07T05:20:29.689Z,3.75
2022-11-07T05:23:12.504Z,3.85
2022-11-07T05:25:46.652Z,3.65
2022-11-07T05:28:16.670Z,3.85
2022-11-07T05:30:45.233Z,3.60
2022-11-07T05:33:16.096Z,3.28
2022-11-07T05:35:44.448Z,4.28
2022-11-07T05:38:12.282Z,4.60
2022-11-07T05:40:40.518Z,3.85
2022-11-07T05:43:10.338Z,4.00
2022-11-07T05:45:38.385Z,4.65
2022-11-07T05:48:08.233Z,4.00
2022-11-07T05:50:36.508Z,4.03
2022-11-07T05:53:05.181Z,3.40
2022-11-07T05:58:14.418Z,3.75
2022-11-07T06:00:42.150Z,3.47
2022-11-07T06:03:10.144Z,3.22
2022-11-07T06:05:39.107Z,3.97
2022-11-07T06:08:07.979Z,3.67
2022-11-07T06:10:37.220Z,4.40
2022-11-07T06:13:06.662Z,3.72
2022-11-07T06:15:36.401Z,3.45
2022-11-07T06:18:05.285Z,3.25
2022-11-07T06:20:34.482Z,3.45
2022-11-07T06:23:07.976Z,3.20
2022-11-07T06:25:36.162Z,3.10
2022-11-07T06:28:06.593Z,3.03
2022-11-07T06:30:34.730Z,2.95
2022-11-07T06:33:03.737Z,3.28
2022-11-07T06:35:31.666Z,3.20
2022-11-07T06:38:03.985Z,3.42
2022-11-07T06:40:31.930Z,3.55
2022-11-07T06:43:11.309Z,3.63
2022-11-07T06:45:39.238Z,3.22
2022-11-07T06:48:07.189Z,3.83
2022-11-07T06:50:35.101Z,3.35
2022-11-07T06:53:13.590Z,3.20
2022-11-07T06:55:47.357Z,3.20
2022-11-07T06:58:20.896Z,2.97
2022-11-07T07:00:49.018Z,3.13
2022-11-07T07:03:17.356Z,4.25
2022-11-07T07:05:44.818Z,3.60
2022-11-07T07:08:13.063Z,4.55
2022-11-07T07:10:45.122Z,4.60
2022-11-07T07:13:14.480Z,4.63
2022-11-07T07:15:51.931Z,4.18
2022-11-07T07:18:45.143Z,4.47
2022-11-07T07:21:14.422Z,4.05
2022-11-07T07:23:42.367Z,4.50
2022-11-07T07:26:15.211Z,4.00
2022-11-07T07:28:43.033Z,4.28
2022-11-07T07:31:14.700Z,4.20
2022-11-07T07:33:43.269Z,4.80
2022-11-07T07:36:15.259Z,4.53
2022-11-07T07:38:45.163Z,5.03
2022-11-07T07:41:12.430Z,5.00
2022-11-07T07:43:39.684Z,5.93
2022-11-07T07:46:08.869Z,4.60
2022-11-07T07:48:36.728Z,4.90
2022-11-07T07:51:04.081Z,5.07
2022-11-07T07:53:31.362Z,5.38
2022-11-07T07:55:59.580Z,5.60
2022-11-07T07:58:27.565Z,5.40
2022-11-07T08:00:58.582Z,5.30
2022-11-07T08:03:29.391Z,5.20
2022-11-07T08:06:02.570Z,5.50
2022-11-07T08:08:35.289Z,6.78
2022-11-07T08:11:07.590Z,5.23
2022-11-07T08:13:36.039Z,6.75
2022-11-07T08:16:05.513Z,6.75
2022-11-07T08:18:32.967Z,6.00
2022-11-07T08:21:00.242Z,4.80
2022-11-07T08:23:27.564Z,4.70
2022-11-07T08:25:57.214Z,4.38
2022-11-07T08:28:27.203Z,4.40
2022-11-07T08:31:05.317Z,4.72
2022-11-07T08:33:33.397Z,3.85
2022-11-07T08:36:02.638Z,3.75
2022-11-07T08:38:31.449Z,3.85
2022-11-07T08:40:59.229Z,4.03
2022-11-07T08:43:27.322Z,3.72
2022-11-07T08:45:55.775Z,4.05
2022-11-07T08:48:23.592Z,3.50
2022-11-07T08:50:56.327Z,3.70
2022-11-07T08:53:24.770Z,4.25
2022-11-07T08:56:01.880Z,4.05
2022-11-07T08:58:30.348Z,4.20
2022-11-07T09:00:58.308Z,4.70
2022-11-07T09:06:14.210Z,4.13
2022-11-07T09:08:41.556Z,4.15
2022-11-07T09:11:09.026Z,4.53
2022-11-07T09:13:37.199Z,4.90
2022-11-07T09:16:05.364Z,4.68
2022-11-07T09:18:33.722Z,4.80
2022-11-07T09:21:01.018Z,4.78
2022-11-07T09:23:28.300Z,4.85
2022-11-07T09:25:58.594Z,4.93
2022-11-07T09:28:25.848Z,4.72
2022-11-07T09:30:54.442Z,4.90
2022-11-07T09:33:22.450Z,5.15
2022-11-07T09:35:50.366Z,5.25
2022-11-07T09:38:18.002Z,5.95
2022-11-07T09:41:08.705Z,7.30
2022-11-07T09:43:47.982Z,6.43
2022-11-07T09:46:36.546Z,6.75
2022-11-07T09:49:03.765Z,7.15
2022-11-07T09:51:35.481Z,6.80
2022-11-07T09:54:12.461Z,6.07
2022-11-07T09:56:42.415Z,6.50
2022-11-07T09:59:35.114Z,7.43
2022-11-07T10:02:11.786Z,6.65
2022-11-07T10:04:39.212Z,7.80
2022-11-07T10:07:31.932Z,7.45
2022-11-07T10:10:23.114Z,7.10
2022-11-07T10:13:11.563Z,7.72
2022-11-07T10:15:54.530Z,7.40
2022-11-07T10:18:34.575Z,8.07
2022-11-07T10:21:39.205Z,7.70
2022-11-07T10:24:38.139Z,8.25
2022-11-07T10:27:10.549Z,8.27
2022-11-07T10:29:50.958Z,9.25
2022-11-07T10:32:35.655Z,8.63
2022-11-07T10:35:26.726Z,9.25
2022-11-07T10:37:56.279Z,8.88
2022-11-07T10:40:28.137Z,8.32
2022-11-07T10:42:56.548Z,10.75
2022-11-07T10:45:25.621Z,9.52
2022-11-07T10:48:02.822Z,9.07
2022-11-07T10:50:30.757Z,8.65
2022-11-07T10:53:01.002Z,9.30
2022-11-07T10:55:41.740Z,8.38
2022-11-07T10:58:28.628Z,9.25
2022-11-07T11:01:10.120Z,8.05
2022-11-07T11:03:44.746Z,8.73
2022-11-07T11:06:18.589Z,7.85
2022-11-07T11:08:47.454Z,8.00
2022-11-07T11:11:19.821Z,10.48
2022-11-07T11:13:48.383Z,8.52
2022-11-07T11:16:15.566Z,8.10
2022-11-07T11:18:53.912Z,8.77
2022-11-07T11:21:21.839Z,9.10
2022-11-07T11:23:49.771Z,7.80
2022-11-07T11:26:32.387Z,8.13
2022-11-07T11:29:21.510Z,8.30
2022-11-07T11:31:55.403Z,8.10
2022-11-07T11:35:01.232Z,9.00
2022-11-07T11:37:28.619Z,8.70
2022-11-07T11:39:59.020Z,8.38
2022-11-07T11:42:49.835Z,8.75
2022-11-07T11:45:31.094Z,9.45
2022-11-07T11:48:15.026Z,8.50
2022-11-07T11:50:50.012Z,8.48
2022-11-07T11:53:23.011Z,8.75
2022-11-07T11:56:08.093Z,9.02
2022-11-07T11:58:53.781Z,11.95
2022-11-07T12:01:49.298Z,10.00
2022-11-07T12:04:16.562Z,9.50
2022-11-07T12:06:47.730Z,9.80
2022-11-07T12:09:46.893Z,9.75
2022-11-07T12:12:17.000Z,9.25
2022-11-07T12:15:13.253Z,9.68
2022-11-07T12:18:05.065Z,9.50
2022-11-07T12:20:56.623Z,10.07
2022-11-07T12:24:06.048Z,9.70
2022-11-07T12:26:50.873Z,10.25
2022-11-07T12:29:23.815Z,18.58
2022-11-07T12:32:31.999Z,11.40
2022-11-07T12:35:10.291Z,9.88
2022-11-07T12:38:05.032Z,12.40
2022-11-07T12:40:44.381Z,10.65
2022-11-07T12:43:17.603Z,10.75
2022-11-07T12:46:07.214Z,15.20
2022-11-07T12:48:46.638Z,11.25
2022-11-07T12:51:39.090Z,16.45
2022-11-07T12:54:27.264Z,11.55
2022-11-07T12:56:57.502Z,11.30
2022-11-07T12:59:29.899Z,10.07
2022-11-07T13:02:06.349Z,10.63
2022-11-07T13:04:52.071Z,10.38
2022-11-07T13:07:26.747Z,11.30
2022-11-07T13:10:09.532Z,11.85
2022-11-07T13:12:44.359Z,11.50
2022-11-07T13:15:13.947Z,11.90
2022-11-07T13:17:44.267Z,10.68
2022-11-07T13:20:29.373Z,11.40
2022-11-07T13:23:01.370Z,12.70
2022-11-07T13:25:33.477Z,11.27
2022-11-07T13:28:06.694Z,11.27
2022-11-07T13:30:40.312Z,11.07
2022-11-07T13:33:37.211Z,11.30
2022-11-07T13:38:54.738Z,11.88
2022-11-07T13:41:24.145Z,10.80
2022-11-07T13:44:03.492Z,11.63
2022-11-07T13:46:49.359Z,11.38
2022-11-07T13:49:44.590Z,10.18
2022-11-07T13:52:29.662Z,9.98
2022-11-07T13:55:09.808Z,11.02
2022-11-07T13:57:39.215Z,10.90
2022-11-07T14:00:11.051Z,10.63
2022-11-07T14:02:57.533Z,10.55
2022-11-07T14:05:35.028Z,10.90
2022-11-07T14:08:32.436Z,13.50
2022-11-07T14:10:59.874Z,11.65
2022-11-07T14:13:40.903Z,11.70
2022-11-07T14:16:25.063Z,14.35
2022-11-07T14:19:03.879Z,11.85
2022-11-07T14:21:37.169Z,11.25
2022-11-07T14:24:26.340Z,11.02
2022-11-07T14:27:02.930Z,10.13
2022-11-07T14:29:30.759Z,10.68
2022-11-07T14:32:00.977Z,10.30
2022-11-07T14:34:28.784Z,11.40
2022-11-07T14:37:01.569Z,11.45
2022-11-07T14:39:32.217Z,10.93
2022-11-07T14:42:02.872Z,11.48
2022-11-07T14:44:54.584Z,11.32
2022-11-07T14:47:29.301Z,10.60
2022-11-07T14:49:57.771Z,11.10
2022-11-07T14:52:29.298Z,11.05
2022-11-07T14:55:14.118Z,10.20
2022-11-07T14:57:41.857Z,10.90
2022-11-07T15:00:15.725Z,10.45
2022-11-07T15:02:45.543Z,10.60
2022-11-07T15:05:26.881Z,10.80
2022-11-07T15:07:55.109Z,9.65
2022-11-07T15:10:34.275Z,11.13
2022-11-07T15:13:05.067Z,11.18
2022-11-07T15:15:36.996Z,11.10
2022-11-07T15:18:07.019Z,11.00
2022-11-07T15:20:37.223Z,10.05
2022-11-07T15:23:13.308Z,11.02
2022-11-07T15:25:51.187Z,11.75
2022-11-07T15:28:21.144Z,11.38
2022-11-07T15:30:50.098Z,10.23
2022-11-07T15:33:18.688Z,10.50
2022-11-07T15:35:56.878Z,10.10
2022-11-07T15:38:27.707Z,11.07
2022-11-07T15:40:56.132Z,11.40
2022-11-07T15:43:23.606Z,11.48
2022-11-07T15:45:52.547Z,11.93
2022-11-07T15:48:22.817Z,11.55
2022-11-07T15:50:50.288Z,10.85
2022-11-07T15:53:26.132Z,12.20
2022-11-07T15:55:58.721Z,12.85
2022-11-07T15:58:28.638Z,12.90
2022-11-07T16:00:57.133Z,12.30
2022-11-07T16:03:26.006Z,12.48
2022-11-07T16:05:55.726Z,12.02
2022-11-07T16:08:24.549Z,12.57
2022-11-07T16:10:58.503Z,11.20
2022-11-07T16:13:25.730Z,11.55
2022-11-07T16:16:05.787Z,12.70
2022-11-07T16:18:43.905Z,11.32
2022-11-07T16:21:11.270Z,12.80
2022-11-07T16:23:39.655Z,12.05
2022-11-07T16:26:07.086Z,12.50
2022-11-07T16:28:35.664Z,11.82
2022-11-07T16:31:03.097Z,12.55
2022-11-07T16:33:31.292Z,12.50
2022-11-07T16:36:00.895Z,12.95
2022-11-07T16:38:34.983Z,12.65
2022-11-07T16:41:03.212Z,12.90
2022-11-07T16:43:35.088Z,13.02
2022-11-07T16:46:02.792Z,13.35
2022-11-07T16:48:32.245Z,13.73
2022-11-07T16:51:03.453Z,14.05
2022-11-07T16:53:30.990Z,14.27
2022-11-07T16:56:03.011Z,13.80
2022-11-07T16:58:33.494Z,14.32
2022-11-07T17:01:08.181Z,13.45
2022-11-07T17:03:36.618Z,12.75
2022-11-07T17:06:05.298Z,13.55
2022-11-07T17:08:41.865Z,13.52
2022-11-07T17:11:13.642Z,14.27
2022-11-07T17:13:41.254Z,13.95
2022-11-07T17:16:21.115Z,13.80
2022-11-07T17:18:49.306Z,13.98
2022-11-07T17:21:31.957Z,13.07
2022-11-07T17:24:00.945Z,11.45
2022-11-07T17:26:31.128Z,12.15
2022-11-07T17:29:01.091Z,12.63
2022-11-07T17:31:28.567Z,12.35
2022-11-07T17:33:55.978Z,14.00
2022-11-07T17:36:40.294Z,13.15
2022-11-07T17:39:11.745Z,13.10
2022-11-07T17:41:40.956Z,12.25
2022-11-07T17:44:08.886Z,13.40
2022-11-07T17:46:39.468Z,14.32
2022-11-07T17:49:07.860Z,15.90
2022-11-07T17:51:35.992Z,17.10
2022-11-07T17:54:04.415Z,17.63
2022-11-07T17:56:33.253Z,17.08
2022-11-07T17:59:05.006Z,18.02
2022-11-07T18:01:35.400Z,17.83
2022-11-07T18:04:04.397Z,20.77
2022-11-07T18:06:35.462Z,18.83
2022-11-07T18:09:03.929Z,17.60
2022-11-07T18:11:31.813Z,17.48
2022-11-07T18:14:00.100Z,16.48
2022-11-07T18:16:32.656Z,16.42
2022-11-07T18:19:01.373Z,17.17
2022-11-07T18:21:29.351Z,15.27
2022-11-07T18:23:57.476Z,16.27
2022-11-07T18:26:31.204Z,15.38
2022-11-07T18:29:04.450Z,16.17
2022-11-07T18:31:31.936Z,16.88
2022-11-07T18:34:01.550Z,16.85
2022-11-07T18:36:30.875Z,15.23
2022-11-07T18:39:03.433Z,16.13
2022-11-07T18:41:30.923Z,16.42
2022-11-07T18:44:04.224Z,16.52
2022-11-07T18:46:32.660Z,18.35
2022-11-07T18:49:00.607Z,16.98
2022-11-07T18:51:28.288Z,17.05
2022-11-07T18:53:55.649Z,16.50
2022-11-07T18:56:22.865Z,16.48
2022-11-07T18:58:50.231Z,17.38
2022-11-07T19:01:22.085Z,16.73
2022-11-07T19:03:49.501Z,17.77
2022-11-07T19:06:18.899Z,17.33
2022-11-07T19:08:47.690Z,18.23
2022-11-07T19:11:21.703Z,19.98
2022-11-07T19:13:49.009Z,19.20
2022-11-07T19:16:18.363Z,18.25
2022-11-07T19:18:49.473Z,17.35
2022-11-07T19:21:20.569Z,17.63
2022-11-07T19:23:48.945Z,17.20
2022-11-07T19:26:18.938Z,16.90
2022-11-07T19:28:47.042Z,16.85
2022-11-07T19:31:14.746Z,19.38
2022-11-07T19:33:42.803Z,18.88
2022-11-07T19:36:15.662Z,18.23
2022-11-07T19:38:44.148Z,18.17
2022-11-07T19:41:13.756Z,19.05
2022-11-07T19:43:42.607Z,18.70
2022-11-07T19:46:13.463Z,19.42
2022-11-07T19:48:40.819Z,18.40
2022-11-07T19:51:11.336Z,18.02
2022-11-07T19:53:38.603Z,18.33
2022-11-07T19:56:08.654Z,17.77
2022-11-07T19:58:40.386Z,17.85
2022-11-07T20:01:20.395Z,17.25
2022-11-07T20:03:50.050Z,17.90
2022-11-07T20:06:20.246Z,17.17
2022-11-07T20:08:48.426Z,16.80
2022-11-07T20:11:18.649Z,17.70
2022-11-07T20:13:46.406Z,17.55
2022-11-07T20:16:14.292Z,17.67
2022-11-07T20:18:42.093Z,17.90
2022-11-07T20:21:13.166Z,17.52
2022-11-07T20:23:42.334Z,19.55
2022-11-07T20:26:13.055Z,19.83
2022-11-07T20:28:40.786Z,20.48
2022-11-07T20:31:09.894Z,20.65
2022-11-07T20:33:37.288Z,20.17
2022-11-07T20:36:07.743Z,19.77
2022-11-07T20:38:35.952Z,19.90
2022-11-07T20:41:04.508Z,18.88
2022-11-07T20:43:33.752Z,20.30
2022-11-07T20:46:13.521Z,19.42
2022-11-07T20:49:17.886Z,21.27
2022-11-07T20:51:47.725Z,21.30
2022-11-07T20:54:16.363Z,20.30
2022-11-07T20:56:44.067Z,21.30
2022-11-07T20:59:11.695Z,21.13
2022-11-07T21:01:41.209Z,21.25
2022-11-07T21:04:11.290Z,20.23
2022-11-07T21:06:38.831Z,20.30
2022-11-07T21:09:06.662Z,19.73
2022-11-07T21:11:34.371Z,18.42
2022-11-07T21:14:02.269Z,19.67
2022-11-07T21:16:30.084Z,18.90
2022-11-07T21:19:22.791Z,19.70
2022-11-07T21:21:50.327Z,18.67
2022-11-07T21:24:20.442Z,19.08
2022-11-07T21:26:47.852Z,18.40
2022-11-07T21:29:15.675Z,18.95
2022-11-07T21:31:43.001Z,17.50
2022-11-07T21:34:11.621Z,17.00
2022-11-07T21:36:38.942Z,17.45
2022-11-07T21:39:07.574Z,17.80
2022-11-07T21:41:35.687Z,16.83
2022-11-07T21:44:02.941Z,17.60
2022-11-07T21:46:34.222Z,17.73
2022-11-07T21:49:01.946Z,17.13
2022-11-07T22:06:43.666Z,14.95
2022-11-07T22:09:14.795Z,13.98
2022-11-07T22:11:50.085Z,16.15
2022-11-07T22:14:19.902Z,14.98
2022-11-07T22:16:48.418Z,14.48
2022-11-07T22:19:17.016Z,14.52
2022-11-07T22:21:49.700Z,14.57
2022-11-07T22:24:17.046Z,15.10
2022-11-07T22:26:44.605Z,14.48
2022-11-07T22:29:12.927Z,15.18
2022-11-07T22:31:40.229Z,14.80
2022-11-07T22:34:07.490Z,14.98
2022-11-07T22:36:34.835Z,14.77
2022-11-07T22:39:02.296Z,14.48
2022-11-07T22:41:30.161Z,16.42
2022-11-07T22:44:00.163Z,14.48
2022-11-07T22:46:52.897Z,14.52
2022-11-07T22:49:20.217Z,14.45
2022-11-07T22:51:47.855Z,15.45
2022-11-07T22:54:15.573Z,14.20
2022-11-07T22:56:42.874Z,14.75
2022-11-07T22:59:11.373Z,15.00
2022-11-07T23:01:41.694Z,14.10
2022-11-07T23:04:22.663Z,14.07
2022-11-07T23:06:49.976Z,14.15
2022-11-07T23:09:17.371Z,14.85
2022-11-07T23:11:47.137Z,15.35
2022-11-07T23:14:18.286Z,14.32
2022-11-07T23:16:48.420Z,16.20
2022-11-07T23:19:17.424Z,16.00
2022-11-07T23:22:06.618Z,14.98
2022-11-07T23:24:34.844Z,14.23
2022-11-07T23:27:02.335Z,13.48
2022-11-07T23:29:29.658Z,13.38
2022-11-07T23:31:57.265Z,12.20
2022-11-07T23:34:25.877Z,13.10
2022-11-07T23:36:56.153Z,13.55
2022-11-07T23:39:25.836Z,13.07
2022-11-07T23:41:53.141Z,11.52
2022-11-07T23:44:20.541Z,12.35
2022-11-07T23:47:16.479Z,12.45
2022-11-07T23:50:02.863Z,11.52
2022-11-07T23:52:40.131Z,12.13
2022-11-07T23:55:26.530Z,11.48
2022-11-07T23:58:12.169Z,11.35
